Time;durP1;ratioP1;P1;durP2;ratioP2;P2;SDS_P1;SDS_P2;PMS_P1;PMS_P2;Temp;Humidity;BMP_temperature;BMP_pressure;BME280_temperature;BME280_humidity;BME280_pressure;Samples;Min_cycle;Max_cycle;Signal;HPM_P1;HPM_P2
2022/01/11 00:02:06;;;;;;;15.33;9.47;;;;;;;;;;4912687;29;20211;-93
2022/01/11 00:04:33;;;;;;;16.70;9.63;;;;;;;;;;4919579;29;20376;-94
2022/01/11 00:07:03;;;;;;;14.57;9.30;;;;;;;;;;4919829;29;20219;-94
2022/01/11 00:09:38;;;;;;;13.57;8.80;;;;;;;;;;4915917;29;20207;-92
2022/01/11 00:12:08;;;;;;;15.77;9.27;;;;;;;;;;4919471;29;20304;-93
2022/01/11 00:14:35;;;;;;;13.50;8.93;;;;;;;;;;4919522;29;20211;-93
2022/01/11 00:17:03;;;;;;;13.43;8.27;;;;;;;;;;4916685;29;20219;-94
2022/01/11 00:19:32;;;;;;;15.43;9.07;;;;;;;;;;4915409;29;20761;-93
2022/01/11 00:22:02;;;;;;;12.13;7.87;;;;;;;;;;4919321;29;20257;-93
2022/01/11 00:24:29;;;;;;;15.43;8.30;;;;;;;;;;4919134;29;20233;-93
2022/01/11 00:26:59;;;;;;;15.33;9.53;;;;;;;;;;4908151;29;20211;-94
2022/01/11 00:29:26;;;;;;;15.53;8.80;;;;;;;;;;4916012;29;20211;-94
2022/01/11 00:31:55;;;;;;;12.67;8.27;;;;;;;;;;4919077;29;20206;-94
2022/01/11 00:34:24;;;;;;;14.40;8.40;;;;;;;;;;4919108;29;20263;-94
2022/01/11 00:36:51;;;;;;;13.40;9.10;;;;;;;;;;4906141;29;20219;-93
2022/01/11 00:39:19;;;;;;;17.63;9.83;;;;;;;;;;4919145;29;20203;-94
2022/01/11 00:41:46;;;;;;;12.43;8.10;;;;;;;;;;4918965;29;20207;-93
2022/01/11 00:44:15;;;;;;;12.60;8.83;;;;;;;;;;4915698;29;20621;-94
2022/01/11 00:46:44;;;;;;;19.10;9.50;;;;;;;;;;4914505;29;20227;-93
2022/01/11 00:49:12;;;;;;;13.00;8.13;;;;;;;;;;4919165;29;20298;-91
2022/01/11 00:51:39;;;;;;;14.53;9.63;;;;;;;;;;4919257;29;20218;-94
2022/01/11 00:54:06;;;;;;;14.80;9.30;;;;;;;;;;4913383;29;20300;-94
2022/01/11 00:56:34;;;;;;;16.77;9.07;;;;;;;;;;4914111;29;20306;-93
2022/01/11 00:59:01;;;;;;;16.47;9.87;;;;;;;;;;4918452;29;20267;-93
2022/01/11 01:01:37;;;;;;;17.70;9.87;;;;;;;;;;4916321;29;20715;-94
2022/01/11 01:04:04;;;;;;;21.00;10.07;;;;;;;;;;4917134;29;20234;-93
2022/01/11 01:06:32;;;;;;;13.27;8.77;;;;;;;;;;4918734;29;20291;-93
2022/01/11 01:08:59;;;;;;;12.87;8.83;;;;;;;;;;4917801;29;20222;-94
2022/01/11 01:11:26;;;;;;;15.30;9.53;;;;;;;;;;4912504;29;20222;-94
2022/01/11 01:13:54;;;;;;;14.33;7.83;;;;;;;;;;4918201;29;20215;-93
2022/01/11 01:16:21;;;;;;;11.97;7.83;;;;;;;;;;4917986;29;20254;-94
2022/01/11 01:18:50;;;;;;;17.20;9.13;;;;;;;;;;4914114;29;20266;-94
2022/01/11 01:21:17;;;;;;;13.60;8.57;;;;;;;;;;4918345;29;20593;-93
2022/01/11 01:23:45;;;;;;;13.57;8.77;;;;;;;;;;4918453;29;20219;-93
2022/01/11 01:26:12;;;;;;;14.83;8.33;;;;;;;;;;4899277;29;20231;-94
2022/01/11 01:28:40;;;;;;;12.43;7.80;;;;;;;;;;4913378;29;20207;-93
2022/01/11 01:31:07;;;;;;;13.17;8.57;;;;;;;;;;4917631;29;20202;-93
2022/01/11 01:33:35;;;;;;;14.67;8.77;;;;;;;;;;4918374;29;20214;-93
2022/01/11 01:36:11;;;;;;;17.33;9.87;;;;;;;;;;4910745;29;20287;-93
2022/01/11 01:38:38;;;;;;;13.67;9.00;;;;;;;;;;4911969;29;20217;-93
2022/01/11 01:41:12;;;;;;;13.77;8.93;;;;;;;;;;4917810;29;20234;-93
2022/01/11 01:43:40;;;;;;;15.10;9.30;;;;;;;;;;4918116;29;20228;-94
2022/01/11 01:46:07;;;;;;;13.10;7.87;;;;;;;;;;4912590;29;20230;-94
2022/01/11 01:48:35;;;;;;;15.20;8.73;;;;;;;;;;4917637;29;20202;-94
2022/01/11 01:51:05;;;;;;;13.57;8.53;;;;;;;;;;4917622;29;20262;-92
2022/01/11 01:53:32;;;;;;;14.10;8.27;;;;;;;;;;4916712;29;20211;-93
2022/01/11 01:55:59;;;;;;;14.47;8.43;;;;;;;;;;4913693;29;20847;-94
2022/01/11 01:58:29;;;;;;;13.10;9.30;;;;;;;;;;4915511;29;20202;-93
2022/01/11 02:01:02;;;;;;;15.60;9.57;;;;;;;;;;4916534;29;20290;-94
2022/01/11 02:03:31;;;;;;;18.27;9.67;;;;;;;;;;4910898;29;20258;-93
2022/01/11 02:05:59;;;;;;;20.50;10.17;;;;;;;;;;4915318;29;20235;-93
2022/01/11 02:08:28;;;;;;;12.97;8.93;;;;;;;;;;4918620;29;20215;-94
2022/01/11 02:10:55;;;;;;;14.33;8.67;;;;;;;;;;4918528;29;20218;-94
2022/01/11 02:13:23;;;;;;;17.53;9.33;;;;;;;;;;4914728;29;20281;-93
2022/01/11 02:15:51;;;;;;;15.10;8.60;;;;;;;;;;4917811;29;20286;-93
2022/01/11 02:18:22;;;;;;;12.67;8.60;;;;;;;;;;4918179;29;20218;-94
2022/01/11 02:20:52;;;;;;;15.67;9.17;;;;;;;;;;4912190;29;20216;-93
2022/01/11 02:23:20;;;;;;;14.10;8.43;;;;;;;;;;4917190;29;20230;-94
2022/01/11 02:25:47;;;;;;;15.07;9.30;;;;;;;;;;4916990;29;20230;-93
2022/01/11 02:28:16;;;;;;;14.50;9.60;;;;;;;;;;4912490;29;20218;-93
2022/01/11 02:30:43;;;;;;;13.27;8.70;;;;;;;;;;4917208;29;20214;-92
2022/01/11 02:33:19;;;;;;;16.50;9.23;;;;;;;;;;4917778;29;20262;-93
2022/01/11 02:35:49;;;;;;;14.83;9.97;;;;;;;;;;4917521;29;20245;-93
2022/01/11 02:38:17;;;;;;;15.20;8.90;;;;;;;;;;4911509;29;20211;-93
2022/01/11 02:40:45;;;;;;;17.40;9.23;;;;;;;;;;4913719;29;20226;-93
2022/01/11 02:43:22;;;;;;;17.47;9.10;;;;;;;;;;4917240;29;20203;-94
2022/01/11 02:45:49;;;;;;;15.13;8.73;;;;;;;;;;4914329;29;20230;-93
2022/01/11 02:48:17;;;;;;;19.37;10.37;;;;;;;;;;4915779;29;20211;-93
2022/01/11 02:50:46;;;;;;;13.60;8.53;;;;;;;;;;4917081;29;20226;-94
2022/01/11 02:53:14;;;;;;;14.23;9.33;;;;;;;;;;4916760;29;20262;-94
2022/01/11 02:55:43;;;;;;;15.27;9.40;;;;;;;;;;4913676;29;20378;-93
2022/01/11 02:58:11;;;;;;;18.97;10.00;;;;;;;;;;4909080;29;20348;-93
2022/01/11 03:00:39;;;;;;;18.10;9.97;;;;;;;;;;4898645;29;20218;-94
2022/01/11 03:03:10;;;;;;;13.70;8.80;;;;;;;;;;4897310;29;20223;-93
2022/01/11 03:05:38;;;;;;;14.67;9.07;;;;;;;;;;4907373;29;20230;-94
2022/01/11 03:08:08;;;;;;;15.47;9.63;;;;;;;;;;4913284;29;20219;-91
2022/01/11 03:10:36;;;;;;;17.60;10.33;;;;;;;;;;4911429;29;20821;-92
2022/01/11 03:13:06;;;;;;;15.90;8.93;;;;;;;;;;4915336;29;20219;-93
2022/01/11 03:15:34;;;;;;;16.43;9.03;;;;;;;;;;4916351;29;20223;-93
2022/01/11 03:18:02;;;;;;;15.57;9.33;;;;;;;;;;4916993;29;20306;-94
2022/01/11 03:20:29;;;;;;;14.80;8.70;;;;;;;;;;4911590;29;20203;-93
2022/01/11 03:22:57;;;;;;;13.40;8.47;;;;;;;;;;4916284;29;20620;-93
2022/01/11 03:25:25;;;;;;;12.60;8.80;;;;;;;;;;4919426;29;20234;-94
2022/01/11 03:27:52;;;;;;;15.03;9.13;;;;;;;;;;4920281;29;20211;-93
2022/01/11 03:30:21;;;;;;;15.27;8.77;;;;;;;;;;4906860;29;20270;-94
2022/01/11 03:32:49;;;;;;;14.90;7.93;;;;;;;;;;4917590;29;20215;-93
2022/01/11 03:35:16;;;;;;;18.03;10.27;;;;;;;;;;4920263;29;20242;-94
2022/01/11 03:37:44;;;;;;;14.90;10.17;;;;;;;;;;4913154;29;20571;-93
2022/01/11 03:40:14;;;;;;;14.97;8.90;;;;;;;;;;4911985;29;20210;-93
2022/01/11 03:42:42;;;;;;;13.70;7.93;;;;;;;;;;4919979;29;20225;-93
2022/01/11 03:45:10;;;;;;;13.83;8.07;;;;;;;;;;4918021;29;20227;-93
2022/01/11 03:47:39;;;;;;;13.43;8.63;;;;;;;;;;4915221;29;20214;-93
2022/01/11 03:50:07;;;;;;;14.17;8.57;;;;;;;;;;4919669;29;20214;-93
2022/01/11 03:52:35;;;;;;;12.73;8.70;;;;;;;;;;4919940;29;20207;-93
2022/01/11 03:55:06;;;;;;;13.97;8.60;;;;;;;;;;4916228;29;20318;-94
2022/01/11 03:57:34;;;;;;;11.53;7.27;;;;;;;;;;4910856;29;20211;-92
2022/01/11 04:00:02;;;;;;;14.53;8.50;;;;;;;;;;4919870;29;20219;-94
2022/01/11 04:02:30;;;;;;;13.50;8.63;;;;;;;;;;4918825;29;20214;-91
2022/01/11 04:04:58;;;;;;;15.50;9.20;;;;;;;;;;4912123;29;20241;-93
2022/01/11 04:07:27;;;;;;;17.60;9.87;;;;;;;;;;4919309;29;20697;-94
2022/01/11 04:09:55;;;;;;;15.07;9.87;;;;;;;;;;4919752;29;20222;-94
2022/01/11 04:12:23;;;;;;;14.57;9.80;;;;;;;;;;4917675;29;20276;-94
2022/01/11 04:14:50;;;;;;;17.53;9.93;;;;;;;;;;4913094;29;20223;-94
2022/01/11 04:17:17;;;;;;;21.13;9.87;;;;;;;;;;4919207;29;20207;-94
2022/01/11 04:19:45;;;;;;;17.63;9.77;;;;;;;;;;4919754;29;20207;-93
2022/01/11 04:22:14;;;;;;;16.37;9.13;;;;;;;;;;4916457;29;20270;-92
2022/01/11 04:24:41;;;;;;;15.63;8.53;;;;;;;;;;4919382;29;20230;-95
2022/01/11 04:27:09;;;;;;;13.23;8.67;;;;;;;;;;4919332;29;20266;-93
2022/01/11 04:29:36;;;;;;;13.90;9.10;;;;;;;;;;4920118;29;20249;-94
2022/01/11 04:32:03;;;;;;;13.70;9.07;;;;;;;;;;4913071;29;20737;-93
2022/01/11 04:34:31;;;;;;;16.87;9.30;;;;;;;;;;4918816;29;20203;-94
2022/01/11 04:36:58;;;;;;;13.03;8.73;;;;;;;;;;4918409;29;20218;-93
2022/01/11 04:39:27;;;;;;;14.27;8.17;;;;;;;;;;4919326;29;20215;-93
2022/01/11 04:41:54;;;;;;;17.57;9.90;;;;;;;;;;4913374;29;20214;-93
2022/01/11 04:44:21;;;;;;;18.87;8.93;;;;;;;;;;4918308;29;20278;-94
2022/01/11 04:46:49;;;;;;;15.03;8.37;;;;;;;;;;4918791;29;20289;-94
2022/01/11 04:49:16;;;;;;;16.07;8.93;;;;;;;;;;4916775;29;20215;-92
2022/01/11 04:51:46;;;;;;;16.90;9.47;;;;;;;;;;4915396;29;20217;-94
2022/01/11 04:54:13;;;;;;;16.30;9.50;;;;;;;;;;4918635;29;20684;-93
2022/01/11 04:56:42;;;;;;;14.20;9.10;;;;;;;;;;4918245;29;20227;-93
2022/01/11 04:59:09;;;;;;;12.53;8.47;;;;;;;;;;4913578;29;20262;-93
2022/01/11 05:01:37;;;;;;;16.60;8.87;;;;;;;;;;4914416;29;20251;-94
2022/01/11 05:04:05;;;;;;;14.43;9.20;;;;;;;;;;4916635;29;20628;-94
2022/01/11 05:06:32;;;;;;;13.87;8.23;;;;;;;;;;4920188;29;20230;-93
2022/01/11 05:09:00;;;;;;;12.80;8.63;;;;;;;;;;4916171;29;20238;-94
2022/01/11 05:11:27;;;;;;;12.00;8.27;;;;;;;;;;4912303;29;20265;-94
2022/01/11 05:13:56;;;;;;;12.43;7.77;;;;;;;;;;4916743;29;20215;-94
2022/01/11 05:16:23;;;;;;;10.83;8.10;;;;;;;;;;4917939;29;20230;-94
2022/01/11 05:18:51;;;;;;;15.37;8.87;;;;;;;;;;4917521;29;20214;-94
2022/01/11 05:21:18;;;;;;;14.23;9.20;;;;;;;;;;4906798;29;20211;-94
2022/01/11 05:23:45;;;;;;;14.17;8.90;;;;;;;;;;4916145;29;20203;-94
2022/01/11 05:26:13;;;;;;;13.23;8.70;;;;;;;;;;4911759;29;20287;-94
2022/01/11 05:28:40;;;;;;;17.00;9.63;;;;;;;;;;4918194;29;20207;-93
2022/01/11 05:31:09;;;;;;;14.67;9.40;;;;;;;;;;4906936;29;20210;-94
2022/01/11 05:33:36;;;;;;;14.60;9.07;;;;;;;;;;4905799;29;20214;-94
2022/01/11 05:36:04;;;;;;;13.57;9.07;;;;;;;;;;4917323;29;20286;-93
2022/01/11 05:38:31;;;;;;;16.07;9.77;;;;;;;;;;4918328;29;20223;-93
2022/01/11 05:40:59;;;;;;;16.07;8.97;;;;;;;;;;4908094;29;20203;-94
2022/01/11 05:43:26;;;;;;;15.33;9.83;;;;;;;;;;4918130;29;20207;-94
2022/01/11 05:45:53;;;;;;;17.30;8.87;;;;;;;;;;4932057;29;20281;-94
2022/01/11 05:48:22;;;;;;;15.30;9.00;;;;;;;;;;4922161;29;20206;-95
2022/01/11 05:50:50;;;;;;;17.43;10.20;;;;;;;;;;4917390;29;20214;-93
2022/01/11 05:53:17;;;;;;;14.37;8.60;;;;;;;;;;4917537;29;20219;-93
2022/01/11 05:55:44;;;;;;;17.50;8.87;;;;;;;;;;4916326;29;20236;-92
2022/01/11 05:58:12;;;;;;;14.23;9.27;;;;;;;;;;4910314;29;20220;-94
2022/01/11 06:00:39;;;;;;;13.03;7.70;;;;;;;;;;4918603;29;20219;-94
2022/01/11 06:03:06;;;;;;;10.70;6.83;;;;;;;;;;4918633;29;20226;-93
2022/01/11 06:05:38;;;;;;;14.80;8.03;;;;;;;;;;4916786;29;20766;-94
2022/01/11 06:08:06;;;;;;;13.57;9.10;;;;;;;;;;4922936;29;20214;-93
2022/01/11 06:10:37;;;;;;;14.30;9.03;;;;;;;;;;4917990;29;20211;-94
2022/01/11 06:13:04;;;;;;;14.77;8.57;;;;;;;;;;4917997;29;20207;-94
2022/01/11 06:15:33;;;;;;;14.30;8.97;;;;;;;;;;4912696;29;20230;-94
2022/01/11 06:18:00;;;;;;;12.03;7.87;;;;;;;;;;4916074;29;20245;-94
2022/01/11 06:20:28;;;;;;;15.20;8.80;;;;;;;;;;4917842;29;20207;-94
2022/01/11 06:22:57;;;;;;;18.60;9.97;;;;;;;;;;4915534;29;20207;-94
2022/01/11 06:25:24;;;;;;;15.33;8.40;;;;;;;;;;4917374;29;20715;-94
2022/01/11 06:27:52;;;;;;;15.10;8.77;;;;;;;;;;4917157;29;20652;-94
2022/01/11 06:30:20;;;;;;;18.47;9.20;;;;;;;;;;4912675;29;20212;-93
2022/01/11 06:32:47;;;;;;;15.47;9.60;;;;;;;;;;4913834;29;20210;-93
2022/01/11 06:35:15;;;;;;;14.60;8.80;;;;;;;;;;4917587;29;20271;-94
2022/01/11 06:37:43;;;;;;;17.17;9.23;;;;;;;;;;4917520;29;20222;-94
2022/01/11 06:40:13;;;;;;;15.93;7.87;;;;;;;;;;4910931;29;20211;-93
2022/01/11 06:42:40;;;;;;;12.27;8.33;;;;;;;;;;4916454;29;20214;-93
2022/01/11 06:45:08;;;;;;;19.17;9.83;;;;;;;;;;4915746;29;20241;-92
2022/01/11 06:47:37;;;;;;;13.63;8.53;;;;;;;;;;4913203;29;20206;-94
2022/01/11 06:50:04;;;;;;;15.50;9.67;;;;;;;;;;4921594;29;20218;-94
2022/01/11 06:52:35;;;;;;;16.73;9.37;;;;;;;;;;4920605;29;20221;-95
2022/01/11 06:55:05;;;;;;;14.87;9.03;;;;;;;;;;4922753;29;20239;-95
2022/01/11 06:57:46;;;;;;;16.73;9.37;;;;;;;;;;4923718;29;20223;-95
2022/01/11 07:00:17;;;;;;;16.80;8.50;;;;;;;;;;4924414;29;20266;-95
2022/01/11 07:02:46;;;;;;;15.07;8.73;;;;;;;;;;4920794;29;20230;-94
2022/01/11 07:05:15;;;;;;;17.67;9.03;;;;;;;;;;4921635;29;20234;-95
2022/01/11 07:07:45;;;;;;;18.37;9.50;;;;;;;;;;4921229;29;20210;-94
2022/01/11 07:10:15;;;;;;;13.63;8.63;;;;;;;;;;4921051;29;20241;-95
2022/01/11 07:12:49;;;;;;;15.33;9.17;;;;;;;;;;4921497;29;20229;-94
2022/01/11 07:15:19;;;;;;;14.93;8.60;;;;;;;;;;4922820;29;20704;-94
2022/01/11 07:17:47;;;;;;;16.17;9.47;;;;;;;;;;4919845;29;20290;-93
2022/01/11 07:20:15;;;;;;;17.27;9.50;;;;;;;;;;4920008;29;20305;-94
2022/01/11 07:22:44;;;;;;;15.50;8.50;;;;;;;;;;4920403;29;20692;-94
2022/01/11 07:25:12;;;;;;;12.47;7.60;;;;;;;;;;4918950;29;20254;-92
2022/01/11 07:27:39;;;;;;;12.97;8.97;;;;;;;;;;4920928;29;20250;-95
2022/01/11 07:30:15;;;;;;;12.37;8.00;;;;;;;;;;4920133;29;20370;-94
2022/01/11 07:32:45;;;;;;;15.63;8.70;;;;;;;;;;4919611;29;20241;-94
2022/01/11 07:35:12;;;;;;;15.80;9.03;;;;;;;;;;4919168;29;20282;-94
2022/01/11 07:37:40;;;;;;;16.67;10.13;;;;;;;;;;4919398;29;20229;-94
2022/01/11 07:40:08;;;;;;;15.07;9.37;;;;;;;;;;4920251;29;20297;-94
2022/01/11 07:42:35;;;;;;;17.20;9.23;;;;;;;;;;4919446;29;20218;-94
2022/01/11 07:45:03;;;;;;;15.90;9.63;;;;;;;;;;4920520;29;20226;-94
2022/01/11 07:47:32;;;;;;;16.13;8.70;;;;;;;;;;4920597;29;20270;-94
2022/01/11 07:49:59;;;;;;;16.37;9.77;;;;;;;;;;4919848;29;20238;-93
2022/01/11 07:52:27;;;;;;;18.90;10.33;;;;;;;;;;4922944;29;20191;-94
2022/01/11 07:54:54;;;;;;;18.60;10.33;;;;;;;;;;4921741;29;20234;-93
2022/01/11 07:57:25;;;;;;;16.27;9.73;;;;;;;;;;4919858;29;20223;-95
2022/01/11 07:59:52;;;;;;;15.07;9.57;;;;;;;;;;4919650;29;20218;-95
2022/01/11 08:02:29;;;;;;;15.53;9.17;;;;;;;;;;4918920;29;20218;-94
2022/01/11 08:05:00;;;;;;;14.50;8.83;;;;;;;;;;4919409;29;20237;-95
2022/01/11 08:07:29;;;;;;;15.73;9.07;;;;;;;;;;4920756;29;20207;-95
2022/01/11 08:09:57;;;;;;;18.73;9.77;;;;;;;;;;4920099;29;20289;-95
2022/01/11 08:12:27;;;;;;;12.80;8.17;;;;;;;;;;4922653;29;20249;-95
2022/01/11 08:14:54;;;;;;;15.63;9.23;;;;;;;;;;4923419;29;20254;-95
2022/01/11 08:17:24;;;;;;;16.47;9.37;;;;;;;;;;4923709;29;20210;-95
2022/01/11 08:19:51;;;;;;;17.67;9.83;;;;;;;;;;4924260;29;20245;-95
2022/01/11 08:22:20;;;;;;;14.83;9.00;;;;;;;;;;4923229;29;20217;-94
2022/01/11 08:24:47;;;;;;;19.77;10.33;;;;;;;;;;4924518;29;20728;-95
2022/01/11 08:27:22;;;;;;;20.60;11.63;;;;;;;;;;4923764;29;20207;-95
2022/01/11 08:29:50;;;;;;;15.40;10.37;;;;;;;;;;4923962;29;20225;-95
2022/01/11 08:32:17;;;;;;;17.10;10.90;;;;;;;;;;4923524;29;20219;-95
2022/01/11 08:34:45;;;;;;;19.87;10.97;;;;;;;;;;4923935;29;20310;-95
2022/01/11 08:37:12;;;;;;;15.83;10.27;;;;;;;;;;4924305;29;20231;-95
2022/01/11 08:39:43;;;;;;;19.13;11.03;;;;;;;;;;4924421;29;20656;-93
2022/01/11 08:42:23;;;;;;;17.27;9.53;;;;;;;;;;4923580;29;20222;-95
2022/01/11 08:44:50;;;;;;;16.60;10.30;;;;;;;;;;4921521;29;20226;-94
2022/01/11 08:47:20;;;;;;;21.07;10.33;;;;;;;;;;4923351;29;20232;-94
2022/01/11 08:49:50;;;;;;;16.63;9.17;;;;;;;;;;4921531;29;20211;-94
2022/01/11 08:52:18;;;;;;;19.90;10.43;;;;;;;;;;4920736;29;20202;-94
2022/01/11 08:54:47;;;;;;;18.23;10.83;;;;;;;;;;4921322;29;20227;-94
2022/01/11 08:57:19;;;;;;;16.77;10.40;;;;;;;;;;4901604;29;20207;-94
2022/01/11 08:59:50;;;;;;;14.77;8.93;;;;;;;;;;4912052;29;20215;-93
2022/01/11 09:02:20;;;;;;;17.10;9.97;;;;;;;;;;4927007;29;20202;-94
2022/01/11 09:04:49;;;;;;;16.57;8.97;;;;;;;;;;4922778;29;20227;-94
2022/01/11 09:07:18;;;;;;;18.00;10.63;;;;;;;;;;4922273;29;20286;-94
2022/01/11 09:09:47;;;;;;;21.77;11.03;;;;;;;;;;4921054;29;20274;-93
2022/01/11 09:12:15;;;;;;;20.57;10.00;;;;;;;;;;4911196;29;20211;-93
2022/01/11 09:14:44;;;;;;;19.80;11.33;;;;;;;;;;4906247;29;20266;-93
2022/01/11 09:17:21;;;;;;;24.37;12.47;;;;;;;;;;4914944;29;20209;-94
2022/01/11 09:19:50;;;;;;;19.80;11.63;;;;;;;;;;4915902;29;20206;-94
2022/01/11 09:22:18;;;;;;;24.60;12.10;;;;;;;;;;4913534;29;20209;-94
2022/01/11 09:24:47;;;;;;;23.17;12.10;;;;;;;;;;4915686;29;20294;-94
2022/01/11 09:27:15;;;;;;;18.50;11.17;;;;;;;;;;4914559;29;20754;-93
2022/01/11 09:29:43;;;;;;;23.10;11.13;;;;;;;;;;4908824;29;20210;-94
2022/01/11 09:32:11;;;;;;;24.43;12.63;;;;;;;;;;4908394;29;20209;-91
2022/01/11 09:34:40;;;;;;;24.40;13.30;;;;;;;;;;4914923;29;20257;-94
2022/01/11 09:37:13;;;;;;;22.80;12.20;;;;;;;;;;4914295;29;20214;-93
2022/01/11 09:39:42;;;;;;;24.80;11.77;;;;;;;;;;4913213;29;20254;-93
2022/01/11 09:42:12;;;;;;;20.07;12.03;;;;;;;;;;4912513;29;20210;-93
2022/01/11 09:44:40;;;;;;;18.70;11.37;;;;;;;;;;4912945;29;20266;-93
2022/01/11 22:10:08;;;;;;;5.50;4.17;;;;;;;;;;4917103;29;20222;-91
2022/01/11 22:12:39;;;;;;;5.23;3.77;;;;;;;;;;4913795;29;20215;-89
2022/01/11 22:17:52;;;;;;;7.17;4.93;;;;;;;;;;4911013;29;20321;-89
2022/01/11 22:20:20;;;;;;;8.30;4.63;;;;;;;;;;4917132;29;20209;-88
2022/01/11 22:22:48;;;;;;;9.37;6.20;;;;;;;;;;4911710;29;20218;-89
2022/01/11 22:25:19;;;;;;;13.13;4.43;;;;;;;;;;4918103;29;20207;-89
2022/01/11 22:27:46;;;;;;;5.70;4.07;;;;;;;;;;4918183;29;20269;-89
2022/01/11 22:30:14;;;;;;;5.50;3.03;;;;;;;;;;4914488;29;20656;-89
2022/01/11 22:32:41;;;;;;;7.47;4.10;;;;;;;;;;4913649;29;20222;-89
2022/01/11 22:35:09;;;;;;;7.90;4.87;;;;;;;;;;4918519;29;20215;-89
2022/01/11 22:37:37;;;;;;;5.87;3.70;;;;;;;;;;4915805;29;20226;-89
2022/01/11 22:40:05;;;;;;;6.50;4.33;;;;;;;;;;4917099;29;20214;-89
2022/01/11 22:42:34;;;;;;;5.60;4.10;;;;;;;;;;4918463;29;20206;-88
2022/01/11 22:45:01;;;;;;;6.37;4.33;;;;;;;;;;4919086;29;20267;-89
2022/01/11 22:47:29;;;;;;;5.37;3.97;;;;;;;;;;4914149;29;20234;-88
2022/01/11 22:49:56;;;;;;;5.87;3.87;;;;;;;;;;4916201;29;20270;-89
2022/01/11 22:52:23;;;;;;;5.83;3.93;;;;;;;;;;4918846;29;20266;-88
2022/01/11 22:54:51;;;;;;;3.77;3.40;;;;;;;;;;4918743;29;20246;-88
2022/01/11 22:57:27;;;;;;;5.03;3.97;;;;;;;;;;4912287;29;20222;-90
2022/01/11 22:59:56;;;;;;;5.13;4.00;;;;;;;;;;4917810;29;20284;-89
2022/01/11 23:02:26;;;;;;;5.27;3.73;;;;;;;;;;4918523;29;20221;-89
2022/01/11 23:04:53;;;;;;;5.33;3.63;;;;;;;;;;4918381;29;20853;-89
2022/01/11 23:07:22;;;;;;;7.57;4.50;;;;;;;;;;4905907;29;20237;-88
2022/01/11 23:09:51;;;;;;;6.07;4.10;;;;;;;;;;4915135;29;20316;-88
2022/01/11 23:12:39;;;;;;;4.07;3.67;;;;;;;;;;4918797;29;20262;-88
2022/01/11 23:15:12;;;;;;;3.40;2.97;;;;;;;;;;4919373;29;20214;-88
2022/01/11 23:17:40;;;;;;;6.70;3.80;;;;;;;;;;4907026;29;20888;-89
2022/01/11 23:20:08;;;;;;;3.93;3.33;;;;;;;;;;4917943;29;20623;-89
2022/01/11 23:22:35;;;;;;;4.47;3.70;;;;;;;;;;4918790;29;20214;-88
2022/01/11 23:25:03;;;;;;;4.77;3.40;;;;;;;;;;4909201;29;20211;-89
2022/01/11 23:27:30;;;;;;;4.43;3.40;;;;;;;;;;4917704;29;20290;-88
2022/01/11 23:29:57;;;;;;;4.03;3.37;;;;;;;;;;4918733;29;20267;-88
2022/01/11 23:32:26;;;;;;;6.43;3.83;;;;;;;;;;4913451;29;20210;-89
2022/01/11 23:34:54;;;;;;;6.03;3.93;;;;;;;;;;4911833;29;20218;-88
2022/01/11 23:37:30;;;;;;;5.93;4.30;;;;;;;;;;4918751;29;20294;-89
2022/01/11 23:48:15;;;;;;;5.10;3.23;;;;;;;;;;4919855;29;20226;-89
2022/01/11 23:50:43;;;;;;;4.17;2.90;;;;;;;;;;4918620;29;20207;-89
2022/01/11 23:53:10;;;;;;;3.03;2.47;;;;;;;;;;4922857;29;20436;-88
2022/01/11 23:55:38;;;;;;;2.70;2.50;;;;;;;;;;4922983;29;20274;-88
2022/01/11 23:58:11;;;;;;;2.70;2.50;;;;;;;;;;4912776;29;20227;-89
